sensor_id;sensor_type;location;lat;lon;timestamp;temperature;humidity
21772;DHT22;11047;47.904;8.110;2023-08-06T00:01:01;12.70;99.90
21772;DHT22;11047;47.904;8.110;2023-08-06T00:03:28;12.70;99.90
21772;DHT22;11047;47.904;8.110;2023-08-06T00:05:55;12.70;99.90
21772;DHT22;11047;47.904;8.110;2023-08-06T00:08:23;12.70;99.90
21772;DHT22;11047;47.904;8.110;2023-08-06T00:10:50;12.70;99.90
21772;DHT22;11047;47.904;8.110;2023-08-06T00:13:17;12.80;99.90
21772;DHT22;11047;47.904;8.110;2023-08-06T00:15:44;12.80;99.90
21772;DHT22;11047;47.904;8.110;2023-08-06T00:18:11;12.80;99.90
21772;DHT22;11047;47.904;8.110;2023-08-06T00:20:39;12.80;99.90
21772;DHT22;11047;47.904;8.110;2023-08-06T00:23:07;12.80;99.90
21772;DHT22;11047;47.904;8.110;2023-08-06T00:25:35;12.70;99.90
21772;DHT22;11047;47.904;8.110;2023-08-06T00:28:02;12.70;99.90
21772;DHT22;11047;47.904;8.110;2023-08-06T00:30:29;12.80;99.90
21772;DHT22;11047;47.904;8.110;2023-08-06T00:32:55;12.70;99.90
21772;DHT22;11047;47.904;8.110;2023-08-06T00:35:22;12.70;99.90
21772;DHT22;11047;47.904;8.110;2023-08-06T00:37:49;12.70;99.90
21772;DHT22;11047;47.904;8.110;2023-08-06T00:40:16;12.70;99.90
21772;DHT22;11047;47.904;8.110;2023-08-06T00:42:47;12.70;99.90
21772;DHT22;11047;47.904;8.110;2023-08-06T00:45:14;12.70;99.90
21772;DHT22;11047;47.904;8.110;2023-08-06T00:47:41;12.70;99.90
21772;DHT22;11047;47.904;8.110;2023-08-06T00:50:09;12.70;99.90
21772;DHT22;11047;47.904;8.110;2023-08-06T00:52:36;12.70;99.90
21772;DHT22;11047;47.904;8.110;2023-08-06T00:55:04;12.80;99.90
21772;DHT22;11047;47.904;8.110;2023-08-06T00:57:32;12.80;99.90
21772;DHT22;11047;47.904;8.110;2023-08-06T01:00:00;12.80;99.90
21772;DHT22;11047;47.904;8.110;2023-08-06T01:02:27;12.80;99.90
21772;DHT22;11047;47.904;8.110;2023-08-06T01:04:54;12.80;99.90
21772;DHT22;11047;47.904;8.110;2023-08-06T01:07:33;12.70;99.90
21772;DHT22;11047;47.904;8.110;2023-08-06T01:10:19;12.70;99.90
21772;DHT22;11047;47.904;8.110;2023-08-06T01:12:54;12.70;99.90
21772;DHT22;11047;47.904;8.110;2023-08-06T01:15:27;12.80;99.90
21772;DHT22;11047;47.904;8.110;2023-08-06T01:17:54;12.80;99.90
21772;DHT22;11047;47.904;8.110;2023-08-06T01:20:22;12.80;99.90
21772;DHT22;11047;47.904;8.110;2023-08-06T01:22:50;12.80;99.90
21772;DHT22;11047;47.904;8.110;2023-08-06T01:25:17;12.70;99.90
21772;DHT22;11047;47.904;8.110;2023-08-06T01:27:47;12.80;99.90
21772;DHT22;11047;47.904;8.110;2023-08-06T01:30:17;12.80;99.90
21772;DHT22;11047;47.904;8.110;2023-08-06T01:32:50;12.70;99.90
21772;DHT22;11047;47.904;8.110;2023-08-06T01:35:19;12.70;99.90
21772;DHT22;11047;47.904;8.110;2023-08-06T01:37:49;12.70;99.90
21772;DHT22;11047;47.904;8.110;2023-08-06T01:40:16;12.80;99.90
21772;DHT22;11047;47.904;8.110;2023-08-06T01:42:43;12.70;99.90
21772;DHT22;11047;47.904;8.110;2023-08-06T01:45:10;12.80;99.90
21772;DHT22;11047;47.904;8.110;2023-08-06T01:47:37;12.70;99.90
21772;DHT22;11047;47.904;8.110;2023-08-06T01:50:05;12.70;99.90
21772;DHT22;11047;47.904;8.110;2023-08-06T01:52:31;12.70;99.90
21772;DHT22;11047;47.904;8.110;2023-08-06T01:55:00;12.70;99.90
21772;DHT22;11047;47.904;8.110;2023-08-06T01:57:27;12.60;99.90
21772;DHT22;11047;47.904;8.110;2023-08-06T01:59:54;12.70;99.90
21772;DHT22;11047;47.904;8.110;2023-08-06T02:02:20;12.60;99.90
21772;DHT22;11047;47.904;8.110;2023-08-06T02:04:47;12.60;99.90
21772;DHT22;11047;47.904;8.110;2023-08-06T02:07:14;12.70;99.90
21772;DHT22;11047;47.904;8.110;2023-08-06T02:09:41;12.70;99.90
21772;DHT22;11047;47.904;8.110;2023-08-06T02:12:09;12.60;99.90
21772;DHT22;11047;47.904;8.110;2023-08-06T02:14:36;12.60;99.90
21772;DHT22;11047;47.904;8.110;2023-08-06T02:17:03;12.60;99.90
21772;DHT22;11047;47.904;8.110;2023-08-06T02:19:30;12.60;99.90
21772;DHT22;11047;47.904;8.110;2023-08-06T02:21:57;12.60;99.90
21772;DHT22;11047;47.904;8.110;2023-08-06T02:24:24;12.50;99.90
21772;DHT22;11047;47.904;8.110;2023-08-06T02:26:51;12.50;99.90
21772;DHT22;11047;47.904;8.110;2023-08-06T02:29:22;12.50;99.90
21772;DHT22;11047;47.904;8.110;2023-08-06T02:31:49;12.40;99.90
21772;DHT22;11047;47.904;8.110;2023-08-06T02:34:16;12.30;99.90
21772;DHT22;11047;47.904;8.110;2023-08-06T02:36:43;12.30;99.90
21772;DHT22;11047;47.904;8.110;2023-08-06T02:39:10;12.30;99.90
21772;DHT22;11047;47.904;8.110;2023-08-06T02:41:36;12.30;99.90
21772;DHT22;11047;47.904;8.110;2023-08-06T02:44:03;12.10;99.90
21772;DHT22;11047;47.904;8.110;2023-08-06T02:46:32;12.20;99.90
21772;DHT22;11047;47.904;8.110;2023-08-06T02:48:59;12.20;99.90
21772;DHT22;11047;47.904;8.110;2023-08-06T02:51:26;12.20;99.90
21772;DHT22;11047;47.904;8.110;2023-08-06T02:53:52;12.20;99.90
21772;DHT22;11047;47.904;8.110;2023-08-06T02:56:19;12.20;99.90
21772;DHT22;11047;47.904;8.110;2023-08-06T02:58:46;12.10;99.90
21772;DHT22;11047;47.904;8.110;2023-08-06T03:01:14;12.00;99.90
21772;DHT22;11047;47.904;8.110;2023-08-06T03:03:42;12.00;99.90
21772;DHT22;11047;47.904;8.110;2023-08-06T03:06:09;11.90;99.90
21772;DHT22;11047;47.904;8.110;2023-08-06T03:08:36;11.90;99.90
21772;DHT22;11047;47.904;8.110;2023-08-06T03:11:03;11.90;99.90
21772;DHT22;11047;47.904;8.110;2023-08-06T03:13:30;11.80;99.90
21772;DHT22;11047;47.904;8.110;2023-08-06T03:15:58;11.80;99.90
21772;DHT22;11047;47.904;8.110;2023-08-06T03:18:25;11.80;99.90
21772;DHT22;11047;47.904;8.110;2023-08-06T03:20:54;11.70;99.90
21772;DHT22;11047;47.904;8.110;2023-08-06T03:23:21;11.70;99.90
21772;DHT22;11047;47.904;8.110;2023-08-06T03:25:48;11.60;99.90
21772;DHT22;11047;47.904;8.110;2023-08-06T03:28:14;11.50;99.90
21772;DHT22;11047;47.904;8.110;2023-08-06T03:30:42;11.40;99.90
21772;DHT22;11047;47.904;8.110;2023-08-06T03:33:08;11.40;99.90
21772;DHT22;11047;47.904;8.110;2023-08-06T03:35:35;11.30;99.90
21772;DHT22;11047;47.904;8.110;2023-08-06T03:38:03;11.30;99.90
21772;DHT22;11047;47.904;8.110;2023-08-06T03:40:30;11.20;99.90
21772;DHT22;11047;47.904;8.110;2023-08-06T03:42:57;11.10;99.90
21772;DHT22;11047;47.904;8.110;2023-08-06T03:45:24;11.10;99.90
21772;DHT22;11047;47.904;8.110;2023-08-06T03:47:51;11.10;99.90
21772;DHT22;11047;47.904;8.110;2023-08-06T03:50:18;11.00;99.90
21772;DHT22;11047;47.904;8.110;2023-08-06T03:52:45;11.00;99.90
21772;DHT22;11047;47.904;8.110;2023-08-06T03:55:13;11.00;99.90
21772;DHT22;11047;47.904;8.110;2023-08-06T03:57:40;10.90;99.90
21772;DHT22;11047;47.904;8.110;2023-08-06T04:00:08;11.10;99.90
21772;DHT22;11047;47.904;8.110;2023-08-06T04:02:35;10.90;99.90
21772;DHT22;11047;47.904;8.110;2023-08-06T04:05:02;10.90;99.90
21772;DHT22;11047;47.904;8.110;2023-08-06T04:07:29;10.80;99.90
21772;DHT22;11047;47.904;8.110;2023-08-06T04:09:57;10.80;99.90
21772;DHT22;11047;47.904;8.110;2023-08-06T04:12:27;10.80;99.90
21772;DHT22;11047;47.904;8.110;2023-08-06T04:14:54;11.00;99.90
21772;DHT22;11047;47.904;8.110;2023-08-06T04:17:21;10.80;99.90
21772;DHT22;11047;47.904;8.110;2023-08-06T04:19:50;10.80;99.90
21772;DHT22;11047;47.904;8.110;2023-08-06T04:22:17;10.80;99.90
21772;DHT22;11047;47.904;8.110;2023-08-06T04:24:44;10.80;99.90
21772;DHT22;11047;47.904;8.110;2023-08-06T04:27:12;10.80;99.90
21772;DHT22;11047;47.904;8.110;2023-08-06T04:29:40;10.80;99.90
21772;DHT22;11047;47.904;8.110;2023-08-06T04:32:09;10.90;99.90
21772;DHT22;11047;47.904;8.110;2023-08-06T04:34:37;10.90;99.90
21772;DHT22;11047;47.904;8.110;2023-08-06T04:37:04;10.80;99.90
21772;DHT22;11047;47.904;8.110;2023-08-06T04:39:31;10.90;99.90
21772;DHT22;11047;47.904;8.110;2023-08-06T04:41:58;10.80;99.90
21772;DHT22;11047;47.904;8.110;2023-08-06T04:44:25;10.80;99.90
21772;DHT22;11047;47.904;8.110;2023-08-06T04:46:53;10.80;99.90
21772;DHT22;11047;47.904;8.110;2023-08-06T04:49:20;10.80;99.90
21772;DHT22;11047;47.904;8.110;2023-08-06T04:51:48;10.80;99.90
21772;DHT22;11047;47.904;8.110;2023-08-06T04:54:14;10.90;99.90
21772;DHT22;11047;47.904;8.110;2023-08-06T04:56:41;10.90;99.90
21772;DHT22;11047;47.904;8.110;2023-08-06T04:59:08;10.90;99.90
21772;DHT22;11047;47.904;8.110;2023-08-06T05:01:35;10.90;99.90
21772;DHT22;11047;47.904;8.110;2023-08-06T05:04:03;10.90;99.90
21772;DHT22;11047;47.904;8.110;2023-08-06T05:06:30;10.90;99.90
21772;DHT22;11047;47.904;8.110;2023-08-06T05:08:57;10.80;99.90
21772;DHT22;11047;47.904;8.110;2023-08-06T05:11:24;10.90;99.90
21772;DHT22;11047;47.904;8.110;2023-08-06T05:13:51;10.80;99.90
21772;DHT22;11047;47.904;8.110;2023-08-06T05:16:18;10.90;99.90
21772;DHT22;11047;47.904;8.110;2023-08-06T05:18:45;10.90;99.90
21772;DHT22;11047;47.904;8.110;2023-08-06T05:21:13;10.90;99.90
21772;DHT22;11047;47.904;8.110;2023-08-06T05:23:41;10.70;99.90
21772;DHT22;11047;47.904;8.110;2023-08-06T05:26:08;10.80;99.90
21772;DHT22;11047;47.904;8.110;2023-08-06T05:28:35;10.70;99.90
21772;DHT22;11047;47.904;8.110;2023-08-06T05:31:05;10.80;99.90
21772;DHT22;11047;47.904;8.110;2023-08-06T05:33:32;11.00;99.90
21772;DHT22;11047;47.904;8.110;2023-08-06T05:35:59;10.80;99.90
21772;DHT22;11047;47.904;8.110;2023-08-06T05:38:27;10.80;99.90
21772;DHT22;11047;47.904;8.110;2023-08-06T05:40:54;10.80;99.90
21772;DHT22;11047;47.904;8.110;2023-08-06T05:43:21;10.70;99.90
21772;DHT22;11047;47.904;8.110;2023-08-06T05:45:49;10.70;99.90
21772;DHT22;11047;47.904;8.110;2023-08-06T05:48:17;10.70;99.90
21772;DHT22;11047;47.904;8.110;2023-08-06T05:50:44;10.70;99.90
21772;DHT22;11047;47.904;8.110;2023-08-06T05:53:11;10.70;99.90
21772;DHT22;11047;47.904;8.110;2023-08-06T05:55:40;10.80;99.90
21772;DHT22;11047;47.904;8.110;2023-08-06T05:58:07;10.80;99.90
21772;DHT22;11047;47.904;8.110;2023-08-06T06:00:34;10.80;99.90
21772;DHT22;11047;47.904;8.110;2023-08-06T06:03:01;10.80;99.90
21772;DHT22;11047;47.904;8.110;2023-08-06T06:05:28;10.80;99.90
21772;DHT22;11047;47.904;8.110;2023-08-06T06:07:55;10.80;99.90
21772;DHT22;11047;47.904;8.110;2023-08-06T06:10:22;10.70;99.90
21772;DHT22;11047;47.904;8.110;2023-08-06T06:12:50;10.70;99.90
21772;DHT22;11047;47.904;8.110;2023-08-06T06:15:17;10.60;99.90
21772;DHT22;11047;47.904;8.110;2023-08-06T06:17:44;10.60;99.90
21772;DHT22;11047;47.904;8.110;2023-08-06T06:20:11;10.60;99.90
21772;DHT22;11047;47.904;8.110;2023-08-06T06:22:38;10.60;99.90
21772;DHT22;11047;47.904;8.110;2023-08-06T06:25:06;10.60;99.90
21772;DHT22;11047;47.904;8.110;2023-08-06T06:27:32;10.60;99.90
21772;DHT22;11047;47.904;8.110;2023-08-06T06:30:01;10.70;99.90
21772;DHT22;11047;47.904;8.110;2023-08-06T06:32:29;10.70;99.90
21772;DHT22;11047;47.904;8.110;2023-08-06T06:34:56;10.70;99.90
21772;DHT22;11047;47.904;8.110;2023-08-06T06:37:24;10.60;99.90
21772;DHT22;11047;47.904;8.110;2023-08-06T06:39:51;10.70;99.90
21772;DHT22;11047;47.904;8.110;2023-08-06T06:42:17;10.70;99.90
21772;DHT22;11047;47.904;8.110;2023-08-06T06:44:44;10.70;99.90
21772;DHT22;11047;47.904;8.110;2023-08-06T06:47:13;10.70;99.90
21772;DHT22;11047;47.904;8.110;2023-08-06T06:49:40;10.70;99.90
21772;DHT22;11047;47.904;8.110;2023-08-06T06:52:07;10.70;99.90
21772;DHT22;11047;47.904;8.110;2023-08-06T06:54:34;10.70;99.90
21772;DHT22;11047;47.904;8.110;2023-08-06T06:57:00;10.80;99.90
21772;DHT22;11047;47.904;8.110;2023-08-06T06:59:27;10.70;99.90
21772;DHT22;11047;47.904;8.110;2023-08-06T07:01:54;10.70;99.90
21772;DHT22;11047;47.904;8.110;2023-08-06T07:04:22;10.80;99.90
21772;DHT22;11047;47.904;8.110;2023-08-06T07:06:49;10.80;99.90
21772;DHT22;11047;47.904;8.110;2023-08-06T07:09:17;10.80;99.90
21772;DHT22;11047;47.904;8.110;2023-08-06T07:11:44;10.90;99.90
21772;DHT22;11047;47.904;8.110;2023-08-06T07:14:11;10.80;99.90
21772;DHT22;11047;47.904;8.110;2023-08-06T07:16:40;10.80;99.90
21772;DHT22;11047;47.904;8.110;2023-08-06T07:19:06;10.80;99.90
21772;DHT22;11047;47.904;8.110;2023-08-06T07:21:35;10.90;99.90
21772;DHT22;11047;47.904;8.110;2023-08-06T07:24:02;10.90;99.90
21772;DHT22;11047;47.904;8.110;2023-08-06T07:26:29;11.00;99.90
21772;DHT22;11047;47.904;8.110;2023-08-06T07:28:56;11.00;99.90
21772;DHT22;11047;47.904;8.110;2023-08-06T07:31:25;11.00;99.90
21772;DHT22;11047;47.904;8.110;2023-08-06T07:33:52;11.00;99.90
21772;DHT22;11047;47.904;8.110;2023-08-06T07:36:19;11.10;99.90
21772;DHT22;11047;47.904;8.110;2023-08-06T07:38:47;10.90;99.90
21772;DHT22;11047;47.904;8.110;2023-08-06T07:41:17;10.90;99.90
21772;DHT22;11047;47.904;8.110;2023-08-06T07:43:44;10.90;99.90
21772;DHT22;11047;47.904;8.110;2023-08-06T07:46:10;10.80;99.90
21772;DHT22;11047;47.904;8.110;2023-08-06T07:48:39;10.90;99.90
21772;DHT22;11047;47.904;8.110;2023-08-06T07:51:05;10.80;99.90
21772;DHT22;11047;47.904;8.110;2023-08-06T07:53:32;10.90;99.90
21772;DHT22;11047;47.904;8.110;2023-08-06T07:56:01;10.90;99.90
21772;DHT22;11047;47.904;8.110;2023-08-06T07:58:28;11.00;99.90
21772;DHT22;11047;47.904;8.110;2023-08-06T08:00:55;11.10;99.90
21772;DHT22;11047;47.904;8.110;2023-08-06T08:03:22;11.20;99.90
21772;DHT22;11047;47.904;8.110;2023-08-06T08:05:49;11.40;99.90
21772;DHT22;11047;47.904;8.110;2023-08-06T08:08:17;11.50;99.90
21772;DHT22;11047;47.904;8.110;2023-08-06T08:10:44;11.40;99.90
21772;DHT22;11047;47.904;8.110;2023-08-06T08:13:12;11.40;99.90
21772;DHT22;11047;47.904;8.110;2023-08-06T08:15:39;11.40;99.90
21772;DHT22;11047;47.904;8.110;2023-08-06T08:18:06;11.30;99.90
21772;DHT22;11047;47.904;8.110;2023-08-06T08:20:33;11.40;99.90
21772;DHT22;11047;47.904;8.110;2023-08-06T08:23:01;11.40;99.90
21772;DHT22;11047;47.904;8.110;2023-08-06T08:25:28;11.30;99.90
21772;DHT22;11047;47.904;8.110;2023-08-06T08:27:57;11.40;99.90
21772;DHT22;11047;47.904;8.110;2023-08-06T08:30:25;11.50;99.90
21772;DHT22;11047;47.904;8.110;2023-08-06T08:32:52;11.50;99.90
21772;DHT22;11047;47.904;8.110;2023-08-06T08:35:19;11.40;99.90
21772;DHT22;11047;47.904;8.110;2023-08-06T08:37:46;11.50;99.90
21772;DHT22;11047;47.904;8.110;2023-08-06T08:40:14;11.30;99.90
21772;DHT22;11047;47.904;8.110;2023-08-06T08:42:42;11.40;99.90
21772;DHT22;11047;47.904;8.110;2023-08-06T08:45:12;11.30;99.90
21772;DHT22;11047;47.904;8.110;2023-08-06T08:47:42;11.30;99.90
21772;DHT22;11047;47.904;8.110;2023-08-06T08:50:09;11.20;99.90
21772;DHT22;11047;47.904;8.110;2023-08-06T08:52:38;11.20;99.90
21772;DHT22;11047;47.904;8.110;2023-08-06T08:55:07;11.20;99.90
21772;DHT22;11047;47.904;8.110;2023-08-06T08:57:34;11.30;99.90
21772;DHT22;11047;47.904;8.110;2023-08-06T09:00:01;11.20;99.90
21772;DHT22;11047;47.904;8.110;2023-08-06T09:02:29;11.10;99.90
21772;DHT22;11047;47.904;8.110;2023-08-06T09:05:00;11.00;99.90
21772;DHT22;11047;47.904;8.110;2023-08-06T09:07:32;10.90;99.90
21772;DHT22;11047;47.904;8.110;2023-08-06T09:10:02;11.10;99.90
21772;DHT22;11047;47.904;8.110;2023-08-06T09:12:30;11.10;99.90
21772;DHT22;11047;47.904;8.110;2023-08-06T09:14:57;11.10;99.90
21772;DHT22;11047;47.904;8.110;2023-08-06T09:17:24;11.10;99.90
21772;DHT22;11047;47.904;8.110;2023-08-06T09:19:51;11.20;99.90
21772;DHT22;11047;47.904;8.110;2023-08-06T09:22:19;11.20;99.90
21772;DHT22;11047;47.904;8.110;2023-08-06T09:24:46;11.20;99.90
21772;DHT22;11047;47.904;8.110;2023-08-06T09:27:13;11.20;99.90
21772;DHT22;11047;47.904;8.110;2023-08-06T09:29:41;11.30;99.90
21772;DHT22;11047;47.904;8.110;2023-08-06T09:32:10;11.50;99.90
21772;DHT22;11047;47.904;8.110;2023-08-06T09:34:39;11.60;99.90
21772;DHT22;11047;47.904;8.110;2023-08-06T09:37:08;11.60;99.90
21772;DHT22;11047;47.904;8.110;2023-08-06T09:39:40;11.50;99.90
21772;DHT22;11047;47.904;8.110;2023-08-06T09:42:07;11.60;99.90
21772;DHT22;11047;47.904;8.110;2023-08-06T09:44:34;11.60;99.90
21772;DHT22;11047;47.904;8.110;2023-08-06T09:47:02;11.80;99.90
21772;DHT22;11047;47.904;8.110;2023-08-06T09:49:40;11.70;99.90
21772;DHT22;11047;47.904;8.110;2023-08-06T09:52:11;11.70;99.90
21772;DHT22;11047;47.904;8.110;2023-08-06T09:54:40;11.60;99.90
21772;DHT22;11047;47.904;8.110;2023-08-06T09:57:08;11.70;99.90
21772;DHT22;11047;47.904;8.110;2023-08-06T09:59:35;11.60;99.90
21772;DHT22;11047;47.904;8.110;2023-08-06T10:02:11;11.60;99.90
21772;DHT22;11047;47.904;8.110;2023-08-06T10:04:39;11.60;99.90
21772;DHT22;11047;47.904;8.110;2023-08-06T10:07:06;11.70;99.90
21772;DHT22;11047;47.904;8.110;2023-08-06T10:09:33;11.80;99.90
21772;DHT22;11047;47.904;8.110;2023-08-06T10:12:01;11.80;99.90
21772;DHT22;11047;47.904;8.110;2023-08-06T10:14:30;12.00;99.90
21772;DHT22;11047;47.904;8.110;2023-08-06T10:16:59;12.00;99.90
21772;DHT22;11047;47.904;8.110;2023-08-06T10:19:27;12.20;99.90
21772;DHT22;11047;47.904;8.110;2023-08-06T10:22:11;12.40;99.90
21772;DHT22;11047;47.904;8.110;2023-08-06T10:24:52;12.80;99.90
21772;DHT22;11047;47.904;8.110;2023-08-06T10:27:28;12.70;99.90
21772;DHT22;11047;47.904;8.110;2023-08-06T10:30:21;12.90;99.90
21772;DHT22;11047;47.904;8.110;2023-08-06T10:32:49;13.00;99.90
21772;DHT22;11047;47.904;8.110;2023-08-06T10:35:32;13.10;99.90
21772;DHT22;11047;47.904;8.110;2023-08-06T10:38:05;13.00;99.90
21772;DHT22;11047;47.904;8.110;2023-08-06T10:40:32;12.70;99.90
21772;DHT22;11047;47.904;8.110;2023-08-06T10:43:01;12.50;99.90
21772;DHT22;11047;47.904;8.110;2023-08-06T10:45:29;12.30;99.90
21772;DHT22;11047;47.904;8.110;2023-08-06T10:47:56;12.30;99.90
21772;DHT22;11047;47.904;8.110;2023-08-06T10:50:24;12.40;99.90
21772;DHT22;11047;47.904;8.110;2023-08-06T10:52:51;12.40;99.90
21772;DHT22;11047;47.904;8.110;2023-08-06T10:55:23;12.50;99.90
21772;DHT22;11047;47.904;8.110;2023-08-06T10:57:50;12.40;99.90
21772;DHT22;11047;47.904;8.110;2023-08-06T11:00:20;12.50;99.90
21772;DHT22;11047;47.904;8.110;2023-08-06T11:02:48;12.30;99.90
21772;DHT22;11047;47.904;8.110;2023-08-06T11:05:15;12.40;99.90
21772;DHT22;11047;47.904;8.110;2023-08-06T11:07:42;12.80;99.90
21772;DHT22;11047;47.904;8.110;2023-08-06T11:10:10;13.00;99.90
21772;DHT22;11047;47.904;8.110;2023-08-06T11:12:38;13.00;99.90
21772;DHT22;11047;47.904;8.110;2023-08-06T11:15:06;13.20;99.90
21772;DHT22;11047;47.904;8.110;2023-08-06T11:17:34;13.20;99.90
21772;DHT22;11047;47.904;8.110;2023-08-06T11:20:03;13.30;99.90
21772;DHT22;11047;47.904;8.110;2023-08-06T11:22:30;13.50;99.90
21772;DHT22;11047;47.904;8.110;2023-08-06T11:24:57;13.50;99.90
21772;DHT22;11047;47.904;8.110;2023-08-06T11:27:27;13.20;99.90
21772;DHT22;11047;47.904;8.110;2023-08-06T11:29:54;13.20;99.90
21772;DHT22;11047;47.904;8.110;2023-08-06T11:32:21;13.30;99.90
21772;DHT22;11047;47.904;8.110;2023-08-06T11:34:50;13.40;99.90
21772;DHT22;11047;47.904;8.110;2023-08-06T11:37:20;13.30;99.90
21772;DHT22;11047;47.904;8.110;2023-08-06T11:39:48;13.20;99.90
21772;DHT22;11047;47.904;8.110;2023-08-06T11:42:16;12.90;99.90
21772;DHT22;11047;47.904;8.110;2023-08-06T11:44:42;12.60;99.90
21772;DHT22;11047;47.904;8.110;2023-08-06T11:47:13;12.60;99.90
21772;DHT22;11047;47.904;8.110;2023-08-06T11:49:43;12.30;99.90
21772;DHT22;11047;47.904;8.110;2023-08-06T11:52:14;12.10;99.90
21772;DHT22;11047;47.904;8.110;2023-08-06T11:54:42;12.00;99.90
21772;DHT22;11047;47.904;8.110;2023-08-06T11:57:09;11.90;99.90
21772;DHT22;11047;47.904;8.110;2023-08-06T11:59:38;11.80;99.90
21772;DHT22;11047;47.904;8.110;2023-08-06T12:02:08;11.70;99.90
21772;DHT22;11047;47.904;8.110;2023-08-06T12:05:03;11.80;99.90
21772;DHT22;11047;47.904;8.110;2023-08-06T12:07:33;11.80;99.90
21772;DHT22;11047;47.904;8.110;2023-08-06T12:10:03;11.80;99.90
21772;DHT22;11047;47.904;8.110;2023-08-06T12:12:30;11.80;99.90
21772;DHT22;11047;47.904;8.110;2023-08-06T12:14:57;11.80;99.90
21772;DHT22;11047;47.904;8.110;2023-08-06T12:17:24;11.90;99.90
21772;DHT22;11047;47.904;8.110;2023-08-06T12:19:52;11.90;99.90
21772;DHT22;11047;47.904;8.110;2023-08-06T12:22:19;12.00;99.90
21772;DHT22;11047;47.904;8.110;2023-08-06T12:24:47;12.10;99.90
21772;DHT22;11047;47.904;8.110;2023-08-06T12:27:14;12.00;99.90
21772;DHT22;11047;47.904;8.110;2023-08-06T12:29:42;12.00;99.90
21772;DHT22;11047;47.904;8.110;2023-08-06T12:32:09;11.90;99.90
21772;DHT22;11047;47.904;8.110;2023-08-06T12:34:37;11.90;99.90
21772;DHT22;11047;47.904;8.110;2023-08-06T12:37:04;11.90;99.90
21772;DHT22;11047;47.904;8.110;2023-08-06T12:39:31;12.10;99.90
21772;DHT22;11047;47.904;8.110;2023-08-06T12:42:00;12.10;99.90
21772;DHT22;11047;47.904;8.110;2023-08-06T12:44:27;12.30;99.90
21772;DHT22;11047;47.904;8.110;2023-08-06T12:46:54;12.20;99.90
21772;DHT22;11047;47.904;8.110;2023-08-06T12:49:22;12.20;99.90
21772;DHT22;11047;47.904;8.110;2023-08-06T12:51:50;12.20;99.90
21772;DHT22;11047;47.904;8.110;2023-08-06T12:54:17;12.30;99.90
21772;DHT22;11047;47.904;8.110;2023-08-06T12:56:44;12.50;99.90
21772;DHT22;11047;47.904;8.110;2023-08-06T12:59:14;12.40;99.90
21772;DHT22;11047;47.904;8.110;2023-08-06T13:01:41;12.40;99.90
21772;DHT22;11047;47.904;8.110;2023-08-06T13:04:09;12.60;99.90
21772;DHT22;11047;47.904;8.110;2023-08-06T13:06:36;12.80;99.90
21772;DHT22;11047;47.904;8.110;2023-08-06T13:09:05;12.80;99.90
21772;DHT22;11047;47.904;8.110;2023-08-06T13:11:32;12.80;99.90
21772;DHT22;11047;47.904;8.110;2023-08-06T13:14:04;12.70;99.90
21772;DHT22;11047;47.904;8.110;2023-08-06T13:16:32;12.60;99.90
21772;DHT22;11047;47.904;8.110;2023-08-06T13:18:59;12.40;99.90
21772;DHT22;11047;47.904;8.110;2023-08-06T13:21:33;12.30;99.90
21772;DHT22;11047;47.904;8.110;2023-08-06T13:24:01;12.00;99.90
21772;DHT22;11047;47.904;8.110;2023-08-06T13:26:28;11.70;99.90
21772;DHT22;11047;47.904;8.110;2023-08-06T13:28:56;11.50;99.90
21772;DHT22;11047;47.904;8.110;2023-08-06T13:31:23;11.30;99.90
21772;DHT22;11047;47.904;8.110;2023-08-06T13:33:51;11.40;99.90
21772;DHT22;11047;47.904;8.110;2023-08-06T13:36:21;11.40;99.90
21772;DHT22;11047;47.904;8.110;2023-08-06T13:38:48;11.50;99.90
21772;DHT22;11047;47.904;8.110;2023-08-06T13:41:15;11.70;99.90
21772;DHT22;11047;47.904;8.110;2023-08-06T13:43:42;11.80;99.90
21772;DHT22;11047;47.904;8.110;2023-08-06T13:46:10;12.10;99.90
21772;DHT22;11047;47.904;8.110;2023-08-06T13:48:41;12.00;99.90
21772;DHT22;11047;47.904;8.110;2023-08-06T13:51:09;12.00;99.90
21772;DHT22;11047;47.904;8.110;2023-08-06T13:53:36;12.00;99.90
21772;DHT22;11047;47.904;8.110;2023-08-06T13:56:04;11.90;99.90
21772;DHT22;11047;47.904;8.110;2023-08-06T13:58:32;11.90;99.90
21772;DHT22;11047;47.904;8.110;2023-08-06T14:00:59;12.00;99.90
21772;DHT22;11047;47.904;8.110;2023-08-06T14:03:26;12.00;99.90
21772;DHT22;11047;47.904;8.110;2023-08-06T14:05:53;12.10;99.90
21772;DHT22;11047;47.904;8.110;2023-08-06T14:08:23;12.20;99.90
21772;DHT22;11047;47.904;8.110;2023-08-06T14:10:50;12.10;99.90
21772;DHT22;11047;47.904;8.110;2023-08-06T14:13:17;12.10;99.90
21772;DHT22;11047;47.904;8.110;2023-08-06T14:15:44;12.10;99.90
21772;DHT22;11047;47.904;8.110;2023-08-06T14:18:12;11.90;99.90
21772;DHT22;11047;47.904;8.110;2023-08-06T14:20:40;11.90;99.90
21772;DHT22;11047;47.904;8.110;2023-08-06T14:23:07;11.90;99.90
21772;DHT22;11047;47.904;8.110;2023-08-06T14:25:35;11.80;99.90
21772;DHT22;11047;47.904;8.110;2023-08-06T14:28:02;11.80;99.90
21772;DHT22;11047;47.904;8.110;2023-08-06T14:30:31;11.80;99.90
21772;DHT22;11047;47.904;8.110;2023-08-06T14:32:58;12.00;99.90
21772;DHT22;11047;47.904;8.110;2023-08-06T14:35:26;12.30;99.90
21772;DHT22;11047;47.904;8.110;2023-08-06T14:37:52;12.10;99.90
21772;DHT22;11047;47.904;8.110;2023-08-06T14:40:19;12.00;99.90
21772;DHT22;11047;47.904;8.110;2023-08-06T14:42:48;11.90;99.90
21772;DHT22;11047;47.904;8.110;2023-08-06T14:45:15;12.10;99.90
21772;DHT22;11047;47.904;8.110;2023-08-06T14:47:41;12.20;99.90
21772;DHT22;11047;47.904;8.110;2023-08-06T14:50:09;12.10;99.90
21772;DHT22;11047;47.904;8.110;2023-08-06T14:52:36;11.90;99.90
21772;DHT22;11047;47.904;8.110;2023-08-06T14:55:04;11.60;99.90
21772;DHT22;11047;47.904;8.110;2023-08-06T14:57:31;11.60;99.90
21772;DHT22;11047;47.904;8.110;2023-08-06T14:59:59;11.50;99.90
21772;DHT22;11047;47.904;8.110;2023-08-06T15:02:26;11.40;99.90
21772;DHT22;11047;47.904;8.110;2023-08-06T15:04:53;11.50;99.90
21772;DHT22;11047;47.904;8.110;2023-08-06T15:07:20;11.50;99.90
21772;DHT22;11047;47.904;8.110;2023-08-06T15:09:47;11.80;99.90
21772;DHT22;11047;47.904;8.110;2023-08-06T15:12:14;11.80;99.90
21772;DHT22;11047;47.904;8.110;2023-08-06T15:14:42;11.70;99.90
21772;DHT22;11047;47.904;8.110;2023-08-06T15:17:11;11.80;99.90
21772;DHT22;11047;47.904;8.110;2023-08-06T15:19:38;11.80;99.90
21772;DHT22;11047;47.904;8.110;2023-08-06T15:22:05;11.70;99.90
21772;DHT22;11047;47.904;8.110;2023-08-06T15:24:32;11.60;99.90
21772;DHT22;11047;47.904;8.110;2023-08-06T15:26:59;11.60;99.90
21772;DHT22;11047;47.904;8.110;2023-08-06T15:29:26;11.70;99.90
21772;DHT22;11047;47.904;8.110;2023-08-06T15:31:53;11.60;99.90
21772;DHT22;11047;47.904;8.110;2023-08-06T15:34:21;11.60;99.90